Latest Weather Observations for kunanyi / Mount Wellington

IDT60901

Issued at 9:11 pm EST Monday 15 July 2024 (issued every 10 minutes, with the page automatically refreshed every 10 minutes)

About weather observations | Map of Hobart area stations | Latest observations for Hobart area | Other Formats
Station Details ID: 094087 Name: KUNANYI (MOUNT WELLINGTON PINNACLE) Lat: -42.90 Lon: 147.24 Height: 1260.47 m
Data from the previous 72 hours. | See also: Recent months at kunanyi / Mount Wellington
Date/Time
EST
Temp
°C
App
Temp
°C
Dew
Point
°C
Rel
Hum
%
Delta-T
°C
Wind Press
QNH
hPa
Press
MSL
hPa
Rain since
9am
mm
Dir  Spd
km/h
Gust
km/h
Spd
kts
Gust
kts
15/09:00pm 3.7 -2.6 3.7 100 0.0 SE 26 44 14 24 - - 59.4
15/08:30pm 3.9 -2.0 3.9 100 0.0 SE 24 43 13 23 - - 59.2
15/08:25pm 4.1 -2.5 4.1 100 0.0 SE 28 48 15 26 - - 59.2
15/08:00pm 3.8 -2.5 3.8 100 0.0 SE 26 43 14 23 - - 58.0
15/07:30pm 3.9 -2.0 3.9 100 0.0 SE 24 41 13 22 - - 57.8
15/07:00pm 4.0 -2.3 4.0 100 0.0 ESE 26 46 14 25 - - 57.6
15/06:30pm 4.0 -1.9 4.0 100 0.0 ESE 24 44 13 24 - - 57.2
15/06:00pm 4.2 -1.3 4.2 100 0.0 ESE 22 39 12 21 - - 56.4
15/05:30pm 4.2 -1.3 4.2 100 0.0 ESE 22 46 12 25 - - 56.0
15/05:00pm 4.5 -0.9 4.5 100 0.0 ESE 22 39 12 21 - - 53.8
15/04:30pm 4.5 -1.3 4.5 100 0.0 ESE 24 43 13 23 - - 52.4
15/04:00pm 4.6 -1.2 4.6 100 0.0 ESE 24 44 13 24 - - 50.8
15/03:30pm 4.6 -1.9 4.6 100 0.0 ESE 28 50 15 27 - - 48.8
15/03:00pm 4.8 -1.7 4.8 100 0.0 ESE 28 54 15 29 - - 47.2
15/02:41pm 4.9 -1.6 4.9 100 0.0 ESE 28 52 15 28 - - 44.8
15/02:30pm 5.2 -0.4 5.2 100 0.0 ESE 24 48 13 26 - - 44.2
15/02:06pm 5.2 -1.2 5.2 100 0.0 ESE 28 50 15 27 - - 42.4
15/02:00pm 5.3 0.1 5.3 100 0.0 ESE 22 50 12 27 - - 42.4
15/01:30pm 5.9 -0.7 5.9 100 0.0 SE 30 56 16 30 - - 40.4
15/01:26pm 6.0 -1.9 6.0 100 0.0 SE 37 61 20 33 - - 40.2
15/01:23pm 6.0 -3.1 6.0 100 0.0 SE 43 70 23 38 - - 40.0
15/01:00pm 6.1 -5.6 6.1 100 0.0 SSE 57 82 31 44 - - 37.6
15/12:30pm 6.1 -8.5 6.1 100 0.0 SSE 72 98 39 53 - - 31.4
15/12:00pm 6.0 -8.2 6.0 100 0.0 SSE 70 95 38 51 - - 26.8
15/11:30am 5.9 -9.5 5.9 100 0.0 SSE 76 98 41 53 - - 22.6
15/11:00am 5.7 -9.3 5.7 100 0.0 SSE 74 96 40 52 - - 17.4
15/10:30am 5.6 -11.0 5.6 100 0.0 SSE 82 106 44 57 - - 14.2
15/10:00am 5.2 -12.4 5.2 100 0.0 S 87 107 47 58 - - 10.6
15/09:30am 5.0 -11.9 5.0 100 0.0 S 83 106 45 57 - - 3.4
15/09:00am 5.0 -11.3 5.0 100 0.0 S 80 100 43 54 - - 44.6
15/08:30am 4.9 -10.3 4.9 100 0.0 S 74 98 40 53 - - 42.2
15/08:00am 4.9 -11.1 4.9 100 0.0 S 78 104 42 56 - - 39.8
15/07:30am 4.7 -11.7 4.7 100 0.0 S 80 106 43 57 - - 37.6
15/07:00am 4.7 -11.7 4.7 100 0.0 S 80 104 43 56 - - 34.2
15/06:30am 4.6 -11.0 4.6 100 0.0 S 76 104 41 56 - - 30.2
15/06:00am 4.6 -11.8 4.6 100 0.0 S 80 104 43 56 - - 27.2
15/05:30am 4.4 -11.7 4.4 100 0.0 S 78 98 42 53 - - 23.2
15/05:01am 4.1 -12.0 4.1 100 0.0 S 78 100 42 54 - - 19.6
15/05:00am 4.1 -12.0 4.1 100 0.0 S 78 95 42 51 - - 19.6
15/04:50am 4.0 -11.0 4.0 100 0.0 S 72 95 39 51 - - 18.8
15/04:30am 4.0 -11.4 4.0 100 0.0 S 74 93 40 50 - - 17.6
15/04:00am 3.9 -12.3 3.9 100 0.0 S 78 98 42 53 - - 15.8
15/03:30am 2.7 -14.1 2.7 100 0.0 S 80 100 43 54 - - 14.8
15/03:20am 2.0 -2.9 2.0 100 0.0 S 17 93 9 50 - - 14.2
15/03:00am 1.1 -1.1 1.1 100 0.0 S 2 17 1 9 - - 13.6
15/02:30am 0.7 -1.6 0.7 100 0.0 SSW 2 15 1 8 - - 11.0
15/02:00am 0.7 -1.6 0.7 100 0.0 SSW 2 4 1 2 - - 9.0
15/01:30am 0.5 -1.8 0.5 100 0.0 SW 2 7 1 4 - - 7.0
15/01:00am 0.2 -2.1 0.2 100 0.0 SW 2 7 1 4 - - 5.8
15/12:30am 0.0 -2.0 0.0 100 0.0 CALM 0 9 0 5 - - 5.4
15/12:00am -0.1 -2.5 -0.1 100 0.0 SW 2 9 1 5 - - 5.2
 
Date/Time
EST
Temp
°C
App
Temp
°C
Dew
Point
°C
Rel
Hum
%
Delta-T
°C
Wind Press
QNH
hPa
Press
MSL
hPa
Rain since
9am
mm
Dir  Spd
km/h
Gust
km/h
Spd
kts
Gust
kts
14/11:30pm -0.1 -2.1 -0.1 100 0.0 CALM 0 2 0 1 - - 4.8
14/11:00pm -0.3 -2.7 -0.3 100 0.0 SW 2 9 1 5 - - 3.6
14/10:30pm -0.5 -2.6 -0.6 99 0.0 CALM 0 2 0 1 - - 3.2
14/10:00pm -0.8 -2.9 -0.9 99 0.0 CALM 0 0 0 0 - - 3.2
14/09:30pm -1.1 -3.6 -1.2 99 0.0 SSW 2 20 1 11 - - 3.2
14/09:00pm -1.3 -3.5 -1.4 99 0.0 CALM 0 2 0 1 - - 3.2
14/08:30pm -1.5 -3.7 -1.6 99 0.0 CALM 0 4 0 2 - - 3.2
14/08:00pm -1.6 -3.8 -1.7 99 0.0 CALM 0 2 0 1 - - 3.2
14/07:30pm -1.9 -4.2 -2.2 98 0.0 CALM 0 0 0 0 - - 3.2
14/07:00pm -2.0 -4.3 -2.3 98 0.0 CALM 0 6 0 3 - - 3.2
14/06:30pm -2.2 -4.5 -2.5 98 0.0 CALM 0 2 0 1 - - 3.2
14/06:00pm -2.2 -4.5 -2.5 98 0.0 CALM 0 0 0 0 - - 3.2
14/05:30pm -2.0 -4.3 -2.3 98 0.0 CALM 0 0 0 0 - - 3.2
14/05:00pm -2.0 -4.3 -2.3 98 0.0 CALM 0 0 0 0 - - 3.2
14/04:30pm -2.0 -4.7 -2.3 98 0.0 SSW 2 7 1 4 - - 3.2
14/04:00pm -1.8 -4.4 -1.9 99 -0.1 SSW 2 13 1 7 - - 3.2
14/03:30pm -1.8 -4.0 -1.9 99 -0.1 CALM 0 7 0 4 - - 3.2
14/03:00pm -1.8 -4.0 -1.9 99 -0.1 CALM 0 6 0 3 - - 3.2
14/02:30pm -1.5 -3.7 -1.6 99 0.0 CALM 0 2 0 1 - - 3.2
14/02:00pm -1.2 -3.4 -1.3 99 0.0 CALM 0 2 0 1 - - 3.2
14/01:30pm -1.1 -3.3 -1.2 99 0.0 CALM 0 4 0 2 - - 2.8
14/01:00pm -1.0 -3.1 -1.1 99 0.0 CALM 0 2 0 1 - - 2.6
14/12:30pm -0.9 -3.0 -1.0 99 0.0 CALM 0 9 0 5 - - 2.2
14/12:00pm -0.9 -3.0 -1.0 99 0.0 CALM 0 11 0 6 - - 2.0
14/11:30am -0.7 -2.8 -0.8 99 0.0 CALM 0 11 0 6 - - 1.6
14/11:00am -0.9 -3.0 -1.0 99 0.0 CALM 0 4 0 2 - - 1.6
14/10:30am -0.8 -2.9 -0.9 99 0.0 CALM 0 11 0 6 - - 1.6
14/10:00am -0.9 -3.0 -1.0 99 0.0 CALM 0 11 0 6 - - 1.2
14/09:30am -0.8 -2.9 -0.9 99 0.0 CALM 0 9 0 5 - - 0.6
14/09:00am -0.9 -3.0 -1.0 99 0.0 CALM 0 2 0 1 - - 1.2
14/08:30am -1.1 -3.3 -1.2 99 0.0 CALM 0 0 0 0 - - 1.0
14/08:00am -1.2 -3.4 -1.3 99 0.0 CALM 0 0 0 0 - - 0.8
14/07:30am -1.2 -3.4 -1.3 99 0.0 CALM 0 0 0 0 - - 0.8
14/07:00am -1.4 -3.6 -1.5 99 0.0 CALM 0 0 0 0 - - 0.6
14/06:30am -1.3 -3.5 -1.4 99 0.0 CALM 0 0 0 0 - - 0.6
14/06:00am -1.6 -3.8 -1.7 99 0.0 CALM 0 0 0 0 - - 0.6
14/05:30am -1.8 -4.0 -1.9 99 -0.1 CALM 0 0 0 0 - - 0.6
14/05:00am -1.8 -4.0 -1.9 99 -0.1 CALM 0 0 0 0 - - 0.6
14/04:30am -1.8 -4.0 -1.9 99 -0.1 CALM 0 0 0 0 - - 0.6
14/04:00am -1.7 -10.2 -1.8 99 0.0 SSW 33 54 18 29 - - 0.6
14/03:30am -1.9 -13.7 -2.2 98 0.0 SSW 50 57 27 31 - - 0.6
14/03:13am -1.9 -12.4 -2.2 98 0.0 SSW 43 63 23 34 - - 0.6
14/03:00am -2.1 -14.3 -2.4 98 0.0 SSW 52 65 28 35 - - 0.6
14/02:30am -2.3 -14.9 -2.6 98 0.0 SSW 54 63 29 34 - - 0.6
14/02:00am -2.3 -15.3 -2.6 98 0.0 SSW 56 69 30 37 - - 0.6
14/01:30am -2.4 -14.2 -2.7 98 0.0 SSW 50 61 27 33 - - 0.6
14/01:00am -2.6 -14.1 -2.9 98 0.0 SSW 48 56 26 30 - - 0.4
14/12:30am -2.9 -14.0 -3.2 98 0.0 SW 46 57 25 31 - - 0.4
14/12:00am -2.6 -13.3 -2.9 98 0.0 SSW 44 50 24 27 - - 0.4
 
Date/Time
EST
Temp
°C
App
Temp
°C
Dew
Point
°C
Rel
Hum
%
Delta-T
°C
Wind Press
QNH
hPa
Press
MSL
hPa
Rain since
9am
mm
Dir  Spd
km/h
Gust
km/h
Spd
kts
Gust
kts
13/11:30pm -2.8 -12.6 -3.1 98 0.0 SW 39 48 21 26 - - 0.4
13/11:00pm -2.7 -10.0 -3.0 98 0.0 SW 26 32 14 17 - - 0.4
13/10:30pm -2.3 -9.6 -2.6 98 0.0 SW 26 32 14 17 - - 0.4
13/10:00pm -2.3 -10.3 -2.6 98 0.0 SW 30 33 16 18 - - 0.4
13/09:30pm -2.1 -9.3 -2.2 99 -0.1 SW 26 32 14 17 - - 0.4
13/09:00pm -1.8 -8.6 -1.9 99 -0.1 SW 24 32 13 17 - - 0.4
13/08:30pm -1.6 -8.0 -1.7 99 0.0 SW 22 30 12 16 - - 0.4
13/08:00pm -2.0 -8.5 -2.1 99 -0.1 SW 22 28 12 15 - - 0.4
13/07:30pm -1.6 -8.4 -1.7 99 0.0 SW 24 30 13 16 - - 0.4
13/07:00pm -1.4 -7.4 -1.5 99 0.0 SW 20 26 11 14 - - 0.4
13/06:30pm -1.3 -7.7 -1.4 99 0.0 SW 22 30 12 16 - - 0.4
13/06:00pm -1.6 -8.4 -1.7 99 0.0 SW 24 28 13 15 - - 0.2
13/05:30pm -1.1 -5.0 -1.4 98 0.1 SW 9 11 5 6 - - 0.0
13/05:00pm -1.1 -5.0 -1.7 96 0.2 SSW 9 15 5 8 - - 0.0
13/04:30pm -0.6 -4.9 -1.4 94 0.3 SW 11 15 6 8 - - 0.0
13/04:00pm -0.3 -4.6 -1.7 90 0.5 SW 11 13 6 7 - - 0.0
13/03:30pm 1.0 -4.1 -1.7 82 1.1 SW 15 20 8 11 - - 0.0
13/03:00pm 1.4 -2.6 -2.5 75 1.5 SW 9 19 5 10 - - 0.0
13/02:30pm 1.0 -4.0 -1.4 84 0.9 SW 15 20 8 11 - - 0.0
13/02:00pm 0.1 -4.5 -1.3 90 0.5 SW 13 17 7 9 - - 0.0
13/01:30pm 0.9 -3.1 -2.0 81 1.1 W 9 17 5 9 - - 0.0
13/01:00pm 0.4 -4.3 -1.7 86 0.8 WSW 13 19 7 10 - - 0.0
13/12:30pm 1.1 -2.7 -1.0 86 0.8 W 9 17 5 9 - - 0.0
13/12:00pm 0.5 -4.2 -1.6 86 0.8 SSW 13 20 7 11 - - 0.0
13/11:30am -0.1 -4.7 -1.4 91 0.5 WSW 13 17 7 9 - - 0.0
13/11:00am -0.4 -4.3 -1.5 92 0.4 WSW 9 13 5 7 - - 0.0
13/10:30am -0.1 -4.7 -1.1 93 0.4 SW 13 19 7 10 - - 0.0
13/10:00am -0.6 -6.0 -1.0 97 0.1 SSW 17 20 9 11 - - 0.0
13/09:30am -1.3 -6.3 -1.4 99 0.0 SW 15 20 8 11 - - 0.0
13/09:00am -1.5 -5.0 -1.6 99 0.0 SSW 7 13 4 7 - - 0.0
13/08:30am -1.8 -9.0 -2.2 97 0.1 SW 26 33 14 18 - - 0.0
13/08:00am -2.1 -8.2 -2.5 97 0.0 SW 20 30 11 16 - - 0.0
13/07:30am -1.9 -8.0 -2.2 98 0.0 SSW 20 24 11 13 - - 0.0
13/07:00am -1.9 -7.4 -2.0 99 -0.1 SSW 17 22 9 12 - - 0.0
13/06:30am -2.0 -9.6 -2.1 99 -0.1 WSW 28 33 15 18 - - 0.0
13/06:00am -1.7 -8.1 -1.8 99 0.0 SW 22 35 12 19 - - 0.0
13/05:30am -1.6 -8.8 -1.7 99 0.0 SW 26 32 14 17 - - 0.0
13/05:00am -1.6 -8.8 -1.7 99 0.0 SW 26 33 14 18 - - 0.0
13/04:30am -1.4 -7.2 -1.5 99 0.0 SW 19 26 10 14 - - 0.0
13/04:00am -1.4 -7.2 -1.7 98 0.0 SW 19 32 10 17 - - 0.0
13/03:30am -1.5 -8.3 -2.2 95 0.2 WSW 24 37 13 20 - - 0.0
13/03:00am -1.0 -8.1 -1.3 98 0.1 W 26 37 14 20 - - 0.0
13/02:30am -0.8 -7.9 -1.5 95 0.2 W 26 43 14 23 - - 0.0
13/02:00am -0.7 -7.1 -1.4 95 0.2 W 22 32 12 17 - - 0.0
13/01:46am -0.6 -9.1 -1.7 92 0.4 W 33 54 18 29 - - 0.0
13/01:30am -0.6 -10.6 -1.7 92 0.4 W 41 52 22 28 - - 0.0
13/01:00am -0.3 -8.7 -0.7 97 0.1 W 33 56 18 30 - - 0.0
13/12:49am -0.1 -7.8 -0.2 99 0.0 WNW 30 48 16 26 - - 0.0
13/12:30am 0.0 -8.1 -0.3 98 0.1 W 32 44 17 24 - - 0.0
13/12:24am 0.0 -8.3 -0.3 98 0.1 W 33 52 18 28 - - 0.0
13/12:00am 0.1 -8.6 -0.3 97 0.2 W 35 50 19 27 - - 0.0
 
Date/Time
EST
Temp
°C
App
Temp
°C
Dew
Point
°C
Rel
Hum
%
Delta-T
°C
Wind Press
QNH
hPa
Press
MSL
hPa
Rain since
9am
mm
Dir  Spd
km/h
Gust
km/h
Spd
kts
Gust
kts
12/11:31pm 0.1 -9.7 -0.5 96 0.2 W 41 59 22 32 - - 0.0
12/11:30pm 0.1 -10.1 -0.5 96 0.2 W 43 59 23 32 - - 0.0
12/11:02pm 0.4 -8.9 0.3 99 0.0 W 39 59 21 32 - - 0.0
12/11:00pm 0.4 -9.3 0.3 99 0.0 W 41 59 22 32 - - 0.0
12/10:50pm 0.6 -8.3 0.5 99 0.0 W 37 57 20 31 - - 0.0
12/10:30pm 0.8 -9.4 0.7 99 0.0 WNW 44 57 24 31 - - 0.0
12/10:00pm 0.9 -8.8 0.5 97 0.2 WNW 41 54 22 29 - - 0.0
12/09:38pm 1.0 -7.1 0.7 98 0.1 W 33 54 18 29 - - 0.0
12/09:30pm 1.1 -7.0 0.8 98 0.1 W 33 44 18 24 - - 0.0

Latest Capital City Observations: Canberra | Sydney | Melbourne | Brisbane | Adelaide | Perth | Hobart | Darwin

Other formats

Comma delimited format used in spreadsheet applications
http://www.bom.gov.au/fwo/IDT60901/IDT60901.95979.axf

JavaScript Object Notation format (JSON) in row-major order
http://www.bom.gov.au/fwo/IDT60901/IDT60901.95979.json

Data quality

Most of these data are generated automatically and are frequently updated. Quality checks on data are not normally performed. It is possible for incorrect values to appear. Refer to information at About Latest Weather Observations and please check the disclaimer before using these data.